Time;durP1;ratioP1;P1;durP2;ratioP2;P2;SDS_P1;SDS_P2;PMS_P1;PMS_P2;Temp;Humidity;BMP_temperature;BMP_pressure;BME280_temperature;BME280_humidity;BME280_pressure;Samples;Min_cycle;Max_cycle;Signal;HPM_P1;HPM_P2
2023/06/17 00:00:00;;;;;;;6.78;3.30;;;21.60;99.90;;;;;;4085874;29;20167;-90
2023/06/17 00:02:01;;;;;;;8.35;3.95;;;21.60;99.90;;;;;;4085753;29;20568;-92
2023/06/17 00:04:03;;;;;;;12.70;3.90;;;21.50;99.90;;;;;;4101844;29;20202;-91
2023/06/17 00:06:03;;;;;;;10.10;3.50;;;21.40;99.90;;;;;;4085864;29;20171;-90
2023/06/17 00:08:04;;;;;;;10.63;3.72;;;21.20;99.90;;;;;;4085961;29;20776;-90
2023/06/17 00:10:06;;;;;;;5.63;3.30;;;21.10;99.90;;;;;;4101501;29;20640;-91
2023/06/17 00:12:07;;;;;;;11.88;3.40;;;21.00;99.90;;;;;;4085818;28;20174;-91
2023/06/17 00:14:08;;;;;;;7.80;3.60;;;21.00;99.90;;;;;;4085747;29;20663;-92
2023/06/17 00:16:12;;;;;;;10.43;3.83;;;20.90;99.90;;;;;;4085359;29;20176;-90
2023/06/17 00:18:14;;;;;;;8.52;3.58;;;20.80;99.90;;;;;;4085335;29;20280;-92
2023/06/17 00:20:14;;;;;;;8.02;3.17;;;20.80;99.90;;;;;;4101346;29;20266;-91
2023/06/17 00:22:16;;;;;;;7.97;3.70;;;20.70;99.90;;;;;;4085464;29;20211;-90
2023/06/17 00:24:17;;;;;;;7.35;3.20;;;20.70;99.90;;;;;;4085317;29;20242;-92
2023/06/17 00:26:18;;;;;;;5.47;3.50;;;20.70;99.90;;;;;;4085273;29;20183;-95
2023/06/17 00:28:19;;;;;;;6.45;3.22;;;20.60;99.90;;;;;;4085238;29;20203;-91
2023/06/17 00:30:20;;;;;;;8.27;3.35;;;20.60;99.90;;;;;;4085352;29;20197;-91
2023/06/17 00:32:21;;;;;;;6.68;3.35;;;20.70;99.90;;;;;;4085515;29;20201;-94
2023/06/17 00:34:21;;;;;;;10.38;3.30;;;20.80;99.90;;;;;;4085162;29;20183;-95
2023/06/17 00:36:22;;;;;;;8.27;3.58;;;20.80;99.90;;;;;;4084963;29;20186;-94
2023/06/17 00:38:23;;;;;;;9.43;3.35;;;20.80;99.90;;;;;;4085056;29;20187;-92
2023/06/17 00:40:24;;;;;;;10.90;3.33;;;20.90;99.90;;;;;;4100798;29;20222;-92
2023/06/17 00:42:24;;;;;;;11.63;3.28;;;20.80;99.90;;;;;;4100837;29;20217;-92
2023/06/17 00:44:25;;;;;;;5.32;3.10;;;20.80;99.90;;;;;;4084914;29;20208;-92
2023/06/17 00:46:48;;;;;;;6.68;3.00;;;20.80;99.90;;;;;;4084888;29;20230;-92
2023/06/17 00:48:49;;;;;;;7.18;3.40;;;20.90;99.90;;;;;;4100495;29;20175;-92
2023/06/17 00:50:50;;;;;;;10.57;3.10;;;20.90;99.90;;;;;;4084987;29;20178;-91
2023/06/17 00:52:54;;;;;;;10.63;3.67;;;20.80;99.90;;;;;;4084203;29;20196;-91
2023/06/17 00:54:55;;;;;;;8.60;3.22;;;20.70;99.90;;;;;;4100692;29;20742;-90
2023/06/17 00:56:57;;;;;;;9.75;3.03;;;20.60;99.90;;;;;;4084543;29;20187;-90
2023/06/17 00:58:59;;;;;;;6.93;3.30;;;20.50;99.90;;;;;;4084933;29;20190;-90
2023/06/17 01:01:00;;;;;;;13.80;4.10;;;20.40;99.90;;;;;;4084845;29;20164;-90
2023/06/17 01:03:01;;;;;;;7.95;3.40;;;20.20;99.90;;;;;;4100497;29;20603;-91
2023/06/17 01:05:02;;;;;;;5.85;3.40;;;20.10;99.90;;;;;;4084734;29;20179;-91
2023/06/17 01:07:16;;;;;;;9.38;3.28;;;20.00;99.90;;;;;;4100403;28;20190;-90
2023/06/17 01:09:23;;;;;;;8.75;4.10;;;19.80;99.90;;;;;;4100328;29;20226;-91
2023/06/17 01:11:25;;;;;;;6.65;3.65;;;19.70;99.90;;;;;;4084714;29;20187;-91
2023/06/17 01:13:28;;;;;;;8.07;3.67;;;19.50;99.90;;;;;;4084860;29;20240;-90
2023/06/17 01:15:33;;;;;;;6.80;4.15;;;19.40;99.90;;;;;;4100518;29;20646;-91
2023/06/17 01:17:35;;;;;;;12.18;3.97;;;19.30;99.90;;;;;;4100500;28;20668;-91
2023/06/17 01:19:38;;;;;;;13.45;4.43;;;19.20;99.90;;;;;;4084617;29;20234;-90
2023/06/17 01:21:38;;;;;;;4.95;3.40;;;19.10;99.90;;;;;;4084594;29;20171;-91
2023/06/17 01:23:41;;;;;;;7.93;3.80;;;19.10;99.90;;;;;;4100371;29;20217;-91
2023/06/17 01:25:42;;;;;;;6.72;3.63;;;19.10;99.90;;;;;;4100860;29;20197;-90
2023/06/17 01:27:42;;;;;;;8.68;4.00;;;19.00;99.90;;;;;;4084482;29;20601;-90
2023/06/17 01:29:48;;;;;;;5.93;3.80;;;19.10;99.90;;;;;;4084614;29;20178;-92
2023/06/17 01:31:56;;;;;;;5.75;3.80;;;19.10;99.90;;;;;;4100125;29;20209;-92
2023/06/17 01:34:01;;;;;;;13.52;3.65;;;19.10;99.90;;;;;;4084394;29;20171;-91
2023/06/17 01:36:14;;;;;;;11.48;4.00;;;19.10;99.90;;;;;;4100246;28;20183;-91
2023/06/17 01:38:20;;;;;;;15.57;4.15;;;19.00;99.90;;;;;;4100092;28;20305;-90
2023/06/17 01:40:23;;;;;;;7.18;4.07;;;19.20;99.90;;;;;;4099913;29;20206;-91
2023/06/17 01:42:34;;;;;;;9.43;4.15;;;19.30;99.90;;;;;;4099960;29;20281;-92
2023/06/17 01:44:36;;;;;;;9.43;4.82;;;19.30;99.90;;;;;;4099910;29;20218;-92
2023/06/17 01:46:37;;;;;;;8.50;4.22;;;19.30;99.90;;;;;;4084168;29;20250;-90
2023/06/17 01:48:39;;;;;;;8.07;4.47;;;19.30;99.90;;;;;;4084203;29;20175;-90
2023/06/17 01:50:39;;;;;;;8.23;3.97;;;19.30;99.90;;;;;;4084136;29;20172;-89
2023/06/17 01:52:40;;;;;;;9.02;3.88;;;19.30;99.90;;;;;;4100056;29;20185;-90
2023/06/17 01:54:41;;;;;;;8.80;4.50;;;19.30;99.90;;;;;;4099763;28;20175;-91
2023/06/17 01:56:42;;;;;;;11.00;3.90;;;19.30;99.90;;;;;;4083901;29;21887;-91
2023/06/17 01:58:43;;;;;;;9.45;3.65;;;19.30;99.90;;;;;;4084132;29;20198;-89
2023/06/17 02:00:45;;;;;;;7.18;3.90;;;19.30;99.90;;;;;;4084334;29;20180;-90
2023/06/17 02:02:46;;;;;;;7.15;3.85;;;19.30;99.90;;;;;;4084109;29;20259;-89
2023/06/17 02:04:47;;;;;;;9.15;3.65;;;19.30;99.90;;;;;;4083032;29;20223;-89
2023/06/17 02:06:48;;;;;;;8.02;3.60;;;19.30;99.90;;;;;;4099773;28;20182;-90
2023/06/17 02:08:48;;;;;;;8.05;3.85;;;19.30;99.90;;;;;;4083883;29;20190;-89
2023/06/17 02:10:49;;;;;;;6.85;3.85;;;19.30;99.90;;;;;;4083841;29;20179;-90
2023/06/17 02:12:50;;;;;;;10.27;4.07;;;19.40;99.90;;;;;;4084057;29;20215;-90
2023/06/17 02:14:51;;;;;;;9.90;3.78;;;19.50;99.90;;;;;;4083878;29;20167;-90
2023/06/17 02:16:52;;;;;;;16.02;5.13;;;19.50;99.90;;;;;;4099867;28;20203;-89
2023/06/17 02:18:54;;;;;;;8.75;3.72;;;19.70;99.90;;;;;;4083965;29;20172;-90
2023/06/17 02:20:55;;;;;;;8.15;3.85;;;19.80;99.90;;;;;;4099739;29;20207;-89
2023/06/17 02:22:56;;;;;;;6.25;3.50;;;19.70;99.90;;;;;;4084034;29;20234;-90
2023/06/17 02:24:56;;;;;;;7.38;3.70;;;19.60;99.90;;;;;;4099675;29;20221;-90
2023/06/17 02:26:57;;;;;;;6.53;3.13;;;19.10;99.90;;;;;;4083778;29;20234;-90
2023/06/17 02:28:58;;;;;;;10.23;3.63;;;18.70;99.90;;;;;;4099637;29;20190;-89
2023/06/17 02:30:59;;;;;;;7.18;3.75;;;18.50;99.90;;;;;;4083629;29;20622;-89
2023/06/17 02:33:00;;;;;;;13.25;4.25;;;18.30;99.90;;;;;;4083712;29;20184;-89
2023/06/17 02:35:02;;;;;;;6.75;4.25;;;18.20;99.90;;;;;;4099852;29;20238;-89
2023/06/17 02:37:03;;;;;;;8.95;4.90;;;18.30;99.90;;;;;;4099898;28;20201;-89
2023/06/17 02:39:05;;;;;;;9.65;5.13;;;18.20;99.90;;;;;;4084060;29;20198;-89
2023/06/17 02:41:05;;;;;;;11.65;4.78;;;18.20;99.90;;;;;;4099933;29;20270;-90
2023/06/17 02:43:08;;;;;;;9.77;4.47;;;18.00;99.90;;;;;;4104479;28;20147;-91
2023/06/17 02:45:13;;;;;;;9.90;4.00;;;18.00;99.90;;;;;;4102638;28;20190;-90
2023/06/17 02:47:14;;;;;;;6.55;3.88;;;17.90;99.90;;;;;;4083872;29;20210;-90
2023/06/17 02:49:15;;;;;;;9.95;4.55;;;18.00;99.90;;;;;;4099462;29;20252;-89
2023/06/17 02:51:16;;;;;;;7.15;4.45;;;18.00;99.90;;;;;;4083836;29;20172;-90
2023/06/17 02:53:17;;;;;;;7.85;4.40;;;17.90;99.90;;;;;;4083544;29;20183;-89
2023/06/17 02:55:18;;;;;;;9.30;4.32;;;17.90;99.90;;;;;;4083468;29;20253;-90
2023/06/17 02:57:19;;;;;;;11.80;4.30;;;17.80;99.90;;;;;;4083759;29;20262;-90
2023/06/17 02:59:19;;;;;;;6.55;4.38;;;17.80;99.90;;;;;;4099530;29;20167;-90
2023/06/17 03:01:23;;;;;;;6.43;4.30;;;17.80;99.90;;;;;;4084086;29;20180;-89
2023/06/17 03:03:33;;;;;;;7.60;4.25;;;17.90;99.90;;;;;;4083564;29;20265;-89
2023/06/17 03:05:35;;;;;;;10.55;4.28;;;18.00;99.90;;;;;;4083761;29;20172;-90
2023/06/17 03:07:36;;;;;;;7.35;4.50;;;18.10;99.90;;;;;;4083700;29;20299;-90
2023/06/17 03:09:37;;;;;;;10.35;4.45;;;18.30;99.90;;;;;;4099547;29;20175;-90
2023/06/17 03:11:39;;;;;;;9.15;4.40;;;18.40;99.90;;;;;;4083644;29;20214;-90
2023/06/17 03:13:40;;;;;;;8.77;3.92;;;18.50;99.90;;;;;;4083531;29;20180;-89
2023/06/17 03:15:50;;;;;;;6.60;4.00;;;18.40;99.90;;;;;;4100798;28;20173;-89
2023/06/17 03:17:51;;;;;;;7.22;4.40;;;18.20;99.90;;;;;;4086200;29;20287;-89
2023/06/17 03:19:52;;;;;;;9.20;4.18;;;18.20;99.90;;;;;;4086281;29;20175;-89
2023/06/17 03:21:53;;;;;;;12.52;4.78;;;18.20;99.90;;;;;;4102201;29;20623;-90
2023/06/17 03:23:59;;;;;;;12.02;4.22;;;18.10;99.90;;;;;;4102185;29;20209;-89
2023/06/17 03:26:00;;;;;;;10.95;4.88;;;18.00;99.90;;;;;;4102275;28;20213;-90
2023/06/17 03:28:02;;;;;;;8.93;4.43;;;18.20;99.90;;;;;;4102098;28;20281;-89
2023/06/17 03:30:04;;;;;;;18.63;4.95;;;18.60;99.90;;;;;;4102024;28;20175;-89
2023/06/17 03:32:05;;;;;;;14.07;5.28;;;18.90;99.90;;;;;;4102097;29;20310;-91
2023/06/17 03:34:06;;;;;;;13.15;4.60;;;19.00;99.90;;;;;;4086294;29;20175;-88
2023/06/17 03:36:07;;;;;;;6.60;4.13;;;19.20;99.90;;;;;;4102171;29;20166;-90
2023/06/17 03:38:08;;;;;;;13.30;4.15;;;19.20;99.90;;;;;;4085936;29;20290;-90
2023/06/17 03:40:09;;;;;;;10.93;4.15;;;19.00;99.90;;;;;;4086078;29;20187;-90
2023/06/17 03:42:16;;;;;;;6.15;4.32;;;18.70;99.90;;;;;;4102286;28;20218;-91
2023/06/17 03:44:17;;;;;;;7.68;4.25;;;18.50;99.90;;;;;;4102077;29;20214;-90
2023/06/17 03:46:18;;;;;;;39.17;7.18;;;18.10;99.90;;;;;;4086117;29;20180;-91
2023/06/17 03:48:19;;;;;;;11.13;4.85;;;17.80;99.90;;;;;;4086046;29;20195;-90
2023/06/17 03:50:20;;;;;;;12.23;4.97;;;17.60;99.90;;;;;;4101927;29;20238;-90
2023/06/17 03:52:21;;;;;;;14.52;4.95;;;18.00;99.90;;;;;;4101863;28;20194;-89
2023/06/17 03:54:22;;;;;;;11.13;4.57;;;18.60;99.90;;;;;;4101556;29;20295;-90
2023/06/17 03:56:23;;;;;;;18.08;4.82;;;18.70;99.90;;;;;;4101763;28;20246;-90
2023/06/17 03:58:24;;;;;;;10.75;4.55;;;18.90;99.90;;;;;;4085952;29;20179;-90
2023/06/17 04:00:27;;;;;;;8.38;4.40;;;19.10;99.90;;;;;;4085844;29;20534;-89
2023/06/17 04:02:27;;;;;;;6.97;3.97;;;19.10;99.90;;;;;;4085411;29;20315;-90
2023/06/17 04:04:34;;;;;;;6.18;3.72;;;19.00;99.90;;;;;;4085577;29;20227;-90
2023/06/17 04:06:35;;;;;;;10.88;4.32;;;18.60;99.90;;;;;;4101453;28;20652;-90
2023/06/17 04:08:37;;;;;;;11.02;5.13;;;18.60;99.90;;;;;;4085559;29;20292;-90
2023/06/17 04:10:38;;;;;;;9.50;4.45;;;18.60;99.90;;;;;;4085655;29;20176;-90
2023/06/17 04:12:41;;;;;;;10.25;4.22;;;18.50;99.90;;;;;;4085755;29;20262;-91
2023/06/17 04:14:42;;;;;;;11.38;4.50;;;18.80;99.90;;;;;;4101588;29;20677;-89
2023/06/17 04:16:44;;;;;;;7.28;4.18;;;18.90;99.90;;;;;;4085264;29;20230;-89
2023/06/17 04:18:45;;;;;;;9.68;4.55;;;18.90;99.90;;;;;;4101347;29;20182;-90
2023/06/17 04:20:47;;;;;;;8.18;4.72;;;18.80;99.90;;;;;;4085586;29;20263;-90
2023/06/17 04:22:47;;;;;;;10.32;4.40;;;18.60;99.90;;;;;;4101696;29;20241;-90
2023/06/17 04:24:48;;;;;;;13.27;4.75;;;18.70;99.90;;;;;;4116977;28;20686;-89
2023/06/17 04:26:52;;;;;;;11.77;4.78;;;18.70;99.90;;;;;;4100171;28;20191;-93
2023/06/17 04:28:54;;;;;;;10.00;4.03;;;18.80;99.90;;;;;;4085279;29;20176;-89
2023/06/17 04:31:00;;;;;;;9.77;4.90;;;19.00;99.90;;;;;;4085357;29;20308;-90
2023/06/17 04:33:02;;;;;;;10.98;4.45;;;19.20;99.90;;;;;;4085355;29;20266;-89
2023/06/17 04:35:04;;;;;;;7.38;4.13;;;19.30;99.90;;;;;;4101074;29;20187;-90
2023/06/17 04:37:08;;;;;;;12.68;4.43;;;19.20;99.90;;;;;;4085209;29;20609;-89
2023/06/17 04:39:09;;;;;;;10.57;5.00;;;19.10;99.90;;;;;;4100712;29;20194;-90
2023/06/17 04:41:11;;;;;;;13.93;5.15;;;19.00;99.90;;;;;;4085133;29;20171;-91
2023/06/17 04:43:12;;;;;;;10.20;5.28;;;18.90;99.90;;;;;;4100805;29;20221;-90
2023/06/17 04:45:13;;;;;;;10.45;5.30;;;18.80;99.90;;;;;;4100875;29;20174;-90
2023/06/17 04:47:16;;;;;;;10.68;4.93;;;18.80;99.90;;;;;;4085044;29;20290;-90
2023/06/17 04:49:17;;;;;;;16.15;4.80;;;18.70;99.90;;;;;;4100881;29;20175;-89
2023/06/17 04:51:18;;;;;;;11.32;5.35;;;18.70;99.90;;;;;;4084838;29;20199;-91
2023/06/17 04:53:19;;;;;;;9.95;4.85;;;18.60;99.90;;;;;;4084947;29;20175;-91
2023/06/17 04:55:21;;;;;;;14.15;5.03;;;18.60;99.90;;;;;;4101020;29;20691;-91
2023/06/17 04:57:23;;;;;;;15.30;5.68;;;18.50;99.90;;;;;;4085158;29;20687;-91
2023/06/17 04:59:26;;;;;;;11.07;5.28;;;18.50;99.90;;;;;;4085095;29;20180;-91
2023/06/17 05:01:28;;;;;;;14.90;5.70;;;18.30;99.90;;;;;;4085356;29;20183;-90
2023/06/17 05:03:29;;;;;;;12.35;5.18;;;18.30;99.90;;;;;;4100699;28;20292;-94
2023/06/17 05:05:30;;;;;;;17.02;5.72;;;18.30;99.90;;;;;;4100891;29;20230;-90
2023/06/17 05:07:31;;;;;;;8.05;5.57;;;18.30;99.90;;;;;;4100638;28;20191;-87
2023/06/17 05:09:32;;;;;;;10.27;5.13;;;18.40;99.90;;;;;;4100485;29;20607;-88
2023/06/17 05:11:33;;;;;;;12.35;5.75;;;18.30;99.90;;;;;;4084678;29;20578;-88
2023/06/17 05:13:34;;;;;;;10.65;5.35;;;18.30;99.90;;;;;;4084718;29;20168;-87
2023/06/17 05:15:35;;;;;;;11.93;5.82;;;18.20;99.90;;;;;;4084679;29;20667;-88
2023/06/17 05:17:36;;;;;;;15.25;5.90;;;18.10;99.90;;;;;;4084643;29;20187;-88
2023/06/17 05:19:36;;;;;;;8.98;5.68;;;18.00;99.90;;;;;;4084459;29;20712;-87
2023/06/17 05:21:37;;;;;;;15.02;6.03;;;17.80;99.90;;;;;;4084554;29;20171;-88
2023/06/17 05:23:38;;;;;;;10.88;5.57;;;17.80;99.90;;;;;;4084652;29;20230;-88
2023/06/17 05:25:40;;;;;;;11.88;5.72;;;17.70;99.90;;;;;;4084356;29;20179;-87
2023/06/17 05:27:41;;;;;;;10.35;6.03;;;17.70;99.90;;;;;;4100252;28;20675;-88
2023/06/17 05:29:43;;;;;;;14.98;6.00;;;17.80;99.90;;;;;;4100393;29;20179;-88
2023/06/17 05:31:44;;;;;;;12.95;6.15;;;17.90;99.90;;;;;;4099969;29;20266;-87
2023/06/17 05:33:45;;;;;;;15.50;6.10;;;18.00;99.90;;;;;;4084359;29;20243;-87
2023/06/17 05:35:46;;;;;;;16.08;6.30;;;18.10;99.90;;;;;;4084339;29;20191;-87
2023/06/17 05:37:47;;;;;;;14.30;6.45;;;18.30;99.90;;;;;;4099981;28;20242;-86
2023/06/17 05:39:48;;;;;;;8.25;5.93;;;18.40;99.90;;;;;;4100914;29;20635;-88
2023/06/17 05:41:49;;;;;;;16.80;6.13;;;18.50;99.90;;;;;;4085331;29;20176;-88
2023/06/17 05:43:52;;;;;;;15.27;5.88;;;18.80;99.90;;;;;;4085101;29;20179;-88
2023/06/17 05:45:53;;;;;;;11.90;5.57;;;18.80;99.90;;;;;;4084551;29;20648;-88
2023/06/17 05:47:54;;;;;;;15.13;6.00;;;19.00;99.90;;;;;;4100036;28;20230;-88
2023/06/17 05:49:56;;;;;;;12.60;6.00;;;19.10;99.90;;;;;;4100122;29;20202;-89
2023/06/17 05:51:57;;;;;;;7.80;5.43;;;19.20;99.90;;;;;;4084130;29;20183;-87
2023/06/17 05:53:57;;;;;;;17.90;6.30;;;19.40;99.90;;;;;;4099685;29;20205;-88
2023/06/17 05:55:58;;;;;;;10.82;5.70;;;19.60;99.90;;;;;;4100026;29;20183;-88
2023/06/17 05:57:59;;;;;;;12.82;6.13;;;19.80;99.90;;;;;;4084470;29;20191;-88
2023/06/17 06:00:00;;;;;;;11.40;5.93;;;20.00;99.90;;;;;;4100159;29;20237;-89
2023/06/17 06:02:02;;;;;;;15.45;6.07;;;20.00;99.90;;;;;;4099995;29;20170;-87
2023/06/17 06:04:03;;;;;;;14.38;5.97;;;20.10;99.90;;;;;;4099874;28;20202;-88
2023/06/17 06:06:05;;;;;;;10.13;5.50;;;20.00;99.90;;;;;;4084076;29;20605;-87
2023/06/17 06:08:06;;;;;;;8.05;5.78;;;20.00;99.90;;;;;;4100176;28;20258;-87
2023/06/17 06:10:08;;;;;;;11.95;5.65;;;20.10;99.90;;;;;;4084155;29;20222;-88
2023/06/17 06:12:12;;;;;;;15.05;6.28;;;20.20;99.90;;;;;;4084387;29;20671;-87
2023/06/17 06:14:13;;;;;;;13.25;6.20;;;20.20;99.90;;;;;;4084225;29;20218;-88
2023/06/17 06:16:14;;;;;;;11.15;5.95;;;20.20;99.90;;;;;;4084465;29;20184;-88
2023/06/17 06:18:14;;;;;;;9.23;5.78;;;20.30;99.90;;;;;;4099910;28;20194;-87
2023/06/17 06:20:15;;;;;;;18.60;5.75;;;20.40;99.90;;;;;;4099935;29;20254;-87
2023/06/17 06:22:16;;;;;;;11.52;6.00;;;20.60;99.90;;;;;;4084245;29;20211;-88
2023/06/17 06:24:17;;;;;;;7.35;5.68;;;20.70;99.90;;;;;;4099832;29;20203;-88
2023/06/17 06:26:17;;;;;;;18.05;5.88;;;20.70;99.90;;;;;;4099643;28;20179;-88
2023/06/17 06:28:18;;;;;;;11.32;5.40;;;20.80;99.90;;;;;;4083831;29;20711;-87
2023/06/17 06:30:19;;;;;;;15.07;6.28;;;20.70;99.90;;;;;;4099658;29;20179;-92
2023/06/17 06:32:23;;;;;;;11.90;6.32;;;20.50;99.90;;;;;;4084240;29;20203;-88
2023/06/17 06:34:24;;;;;;;11.90;6.38;;;20.70;99.90;;;;;;4099454;29;20290;-88
2023/06/17 06:36:25;;;;;;;9.45;5.68;;;21.00;99.90;;;;;;4099566;28;20210;-88
2023/06/17 06:38:26;;;;;;;19.50;5.93;;;21.20;99.90;;;;;;4083821;29;20183;-89
2023/06/17 06:40:27;;;;;;;14.20;5.60;;;20.80;99.90;;;;;;4099419;29;20187;-88
2023/06/17 06:42:27;;;;;;;16.05;5.85;;;20.90;99.90;;;;;;4083648;29;20193;-87
2023/06/17 06:44:46;;;;;;;10.27;5.68;;;21.30;99.90;;;;;;4086004;28;20215;-88
2023/06/17 06:46:50;;;;;;;14.02;5.60;;;21.40;99.90;;;;;;4099728;28;20262;-88
2023/06/17 06:48:51;;;;;;;13.88;5.97;;;21.50;99.90;;;;;;4099564;29;20178;-87
2023/06/17 06:50:52;;;;;;;17.27;5.97;;;21.50;99.90;;;;;;4085255;29;20183;-88
2023/06/17 06:52:54;;;;;;;15.70;5.80;;;21.50;99.90;;;;;;4086944;29;20180;-88
2023/06/17 06:54:57;;;;;;;13.60;6.13;;;21.40;99.90;;;;;;4102317;29;20253;-88
2023/06/17 06:56:58;;;;;;;13.73;5.85;;;21.90;99.90;;;;;;4102235;28;20632;-87
2023/06/17 06:59:00;;;;;;;18.55;6.03;;;22.10;99.90;;;;;;4086558;29;20183;-89
2023/06/17 07:01:01;;;;;;;16.27;6.07;;;22.20;99.90;;;;;;4086659;29;20267;-88
2023/06/17 07:03:01;;;;;;;12.40;6.68;;;22.10;99.90;;;;;;4110408;29;20207;-88
2023/06/17 07:05:07;;;;;;;11.98;5.78;;;22.20;99.90;;;;;;4106604;29;20198;-88
2023/06/17 07:07:13;;;;;;;19.63;5.88;;;22.30;99.90;;;;;;4087278;29;20560;-88
2023/06/17 07:09:15;;;;;;;16.17;5.80;;;22.30;99.90;;;;;;4102269;29;20181;-88
2023/06/17 07:11:16;;;;;;;18.40;6.07;;;22.50;99.90;;;;;;4086552;29;20176;-87
2023/06/17 07:13:17;;;;;;;13.40;5.88;;;22.70;99.90;;;;;;4102280;29;20174;-87
2023/06/17 07:15:19;;;;;;;13.55;6.40;;;23.10;99.90;;;;;;4086456;29;20212;-88
2023/06/17 07:17:23;;;;;;;23.60;6.22;;;23.80;99.90;;;;;;4102334;28;20556;-89
2023/06/17 07:19:24;;;;;;;17.60;6.47;;;24.90;99.90;;;;;;4102163;29;20271;-89
2023/06/17 07:21:24;;;;;;;13.02;6.20;;;25.60;99.90;;;;;;4086351;29;20164;-87
2023/06/17 07:23:26;;;;;;;32.60;8.25;;;26.10;99.90;;;;;;4102214;29;20171;-88
2023/06/17 07:25:26;;;;;;;11.00;5.53;;;26.20;99.90;;;;;;4086658;29;20172;-89
2023/06/17 07:27:27;;;;;;;15.02;6.47;;;26.80;99.90;;;;;;4102236;28;20214;-89
2023/06/17 07:29:28;;;;;;;19.85;6.07;;;27.30;99.90;;;;;;4086625;29;20207;-88
2023/06/17 07:31:30;;;;;;;16.45;6.13;;;27.80;99.90;;;;;;4102310;29;20191;-89
2023/06/17 07:33:31;;;;;;;14.35;5.95;;;27.80;99.90;;;;;;4086251;29;20167;-88
2023/06/17 07:35:32;;;;;;;11.30;5.80;;;27.90;99.90;;;;;;4086079;29;20179;-88
2023/06/17 07:37:33;;;;;;;12.23;6.28;;;28.30;99.90;;;;;;4101833;28;20198;-88
2023/06/17 07:39:35;;;;;;;13.32;5.85;;;28.10;99.90;;;;;;4086168;28;20206;-90
2023/06/17 07:41:36;;;;;;;14.77;6.82;;;28.60;99.90;;;;;;4102072;29;20170;-88
2023/06/17 07:43:36;;;;;;;21.58;5.93;;;28.90;99.90;;;;;;4086026;29;20187;-88
2023/06/17 07:45:37;;;;;;;15.13;6.28;;;29.30;99.90;;;;;;4086191;29;20619;-88
2023/06/17 07:47:38;;;;;;;13.50;6.35;;;29.50;99.90;;;;;;4101848;28;20234;-89
2023/06/17 07:49:39;;;;;;;14.50;6.45;;;29.40;99.90;;;;;;4086146;29;20175;-88
2023/06/17 07:51:39;;;;;;;15.05;6.03;;;29.80;99.90;;;;;;4085834;29;20243;-88
2023/06/17 07:53:40;;;;;;;12.82;6.10;;;30.10;99.90;;;;;;4085954;29;20222;-89
2023/06/17 07:55:41;;;;;;;10.43;6.13;;;29.90;99.70;;;;;;4101732;29;20249;-89
2023/06/17 07:57:42;;;;;;;12.48;6.20;;;30.20;99.90;;;;;;4101571;28;20198;-88
2023/06/17 07:59:42;;;;;;;16.05;6.18;;;30.60;99.90;;;;;;4101758;29;20245;-89
2023/06/17 08:01:43;;;;;;;12.30;6.30;;;30.90;99.90;;;;;;4085876;29;20202;-89
2023/06/17 08:03:44;;;;;;;11.23;5.55;;;30.90;99.30;;;;;;4085814;29;20182;-89
2023/06/17 08:05:45;;;;;;;15.93;5.90;;;30.80;99.30;;;;;;4085920;29;20191;-89
2023/06/17 08:07:45;;;;;;;15.13;5.97;;;31.00;99.90;;;;;;4101652;28;20245;-91
2023/06/17 08:09:46;;;;;;;12.82;6.28;;;30.90;98.90;;;;;;4085737;29;20204;-89
2023/06/17 08:11:47;;;;;;;12.18;6.28;;;30.70;98.80;;;;;;4085802;29;20176;-89
2023/06/17 08:13:48;;;;;;;15.07;6.22;;;30.50;98.70;;;;;;4085718;29;20310;-89
2023/06/17 08:15:51;;;;;;;14.27;5.63;;;30.40;98.80;;;;;;4085642;29;20176;-91
2023/06/17 08:17:52;;;;;;;12.48;5.93;;;30.20;99.10;;;;;;4085721;29;20282;-90
2023/06/17 08:19:53;;;;;;;11.90;6.40;;;30.30;99.40;;;;;;4085597;29;20640;-89
2023/06/17 08:21:54;;;;;;;15.48;6.50;;;30.50;99.00;;;;;;4101652;29;20226;-89
2023/06/17 08:23:55;;;;;;;12.15;5.72;;;30.70;98.90;;;;;;4085923;29;20203;-91
2023/06/17 08:25:56;;;;;;;13.13;6.10;;;30.10;98.80;;;;;;4085098;29;20176;-91
2023/06/17 08:27:57;;;;;;;12.88;6.30;;;30.50;99.40;;;;;;4085339;29;20347;-89
2023/06/17 08:29:58;;;;;;;10.00;5.82;;;30.60;98.40;;;;;;4085351;29;20168;-90
2023/06/17 08:31:59;;;;;;;11.88;5.78;;;31.10;98.70;;;;;;4085383;29;20625;-89
2023/06/17 08:34:00;;;;;;;10.60;5.55;;;31.60;97.60;;;;;;4085398;29;20235;-91
2023/06/17 08:36:00;;;;;;;13.77;5.95;;;32.40;98.00;;;;;;4101186;29;20190;-92
2023/06/17 08:38:01;;;;;;;14.35;5.88;;;32.00;97.50;;;;;;4085335;29;20203;-90
2023/06/17 08:40:06;;;;;;;10.95;5.50;;;32.40;96.80;;;;;;4085028;29;20187;-90
2023/06/17 08:42:08;;;;;;;8.25;5.28;;;32.70;97.30;;;;;;4101066;29;20667;-91
2023/06/17 08:44:11;;;;;;;13.05;5.72;;;32.60;96.70;;;;;;4085396;29;20214;-90
2023/06/17 08:46:13;;;;;;;12.82;5.97;;;32.50;96.40;;;;;;4085235;29;20699;-90
2023/06/17 08:48:15;;;;;;;10.80;6.50;;;32.90;97.40;;;;;;4101009;28;20221;-93
2023/06/17 08:50:16;;;;;;;15.25;5.60;;;33.50;96.30;;;;;;4084954;29;20171;-89
2023/06/17 08:52:17;;;;;;;16.25;6.22;;;33.70;96.60;;;;;;4085069;29;20184;-90
2023/06/17 08:54:22;;;;;;;12.48;5.10;;;33.70;95.20;;;;;;4085103;29;20187;-90
2023/06/17 08:56:23;;;;;;;12.00;5.40;;;33.80;95.60;;;;;;4084745;29;20262;-90
2023/06/17 08:58:24;;;;;;;12.50;6.35;;;33.60;95.30;;;;;;4085096;29;20238;-90
2023/06/17 09:00:24;;;;;;;14.35;5.93;;;33.60;95.40;;;;;;4116562;28;20209;-91
2023/06/17 09:02:26;;;;;;;18.02;5.93;;;33.20;95.70;;;;;;4085066;29;20191;-89
2023/06/17 09:04:27;;;;;;;19.83;5.90;;;32.80;95.60;;;;;;4102041;28;20292;-89
2023/06/17 09:06:29;;;;;;;12.20;6.13;;;32.20;96.60;;;;;;4084841;29;20168;-91
2023/06/17 09:08:30;;;;;;;14.10;6.00;;;31.80;95.60;;;;;;4100612;28;20179;-90
2023/06/17 09:10:43;;;;;;;10.07;5.50;;;32.00;96.20;;;;;;4100628;29;20171;-90
2023/06/17 09:12:44;;;;;;;10.32;4.93;;;32.20;96.40;;;;;;4100327;28;20182;-90
2023/06/17 09:14:45;;;;;;;11.88;5.47;;;32.40;96.40;;;;;;4084719;29;20596;-91
2023/06/17 09:16:45;;;;;;;8.07;5.75;;;32.60;96.20;;;;;;4104055;28;20655;-90
2023/06/17 09:18:46;;;;;;;16.63;5.85;;;32.50;96.20;;;;;;4096161;29;20175;-91
2023/06/17 09:20:56;;;;;;;12.93;5.50;;;32.80;95.40;;;;;;4104511;29;20201;-90
2023/06/17 09:22:56;;;;;;;10.02;5.35;;;33.00;95.20;;;;;;4084870;29;20203;-90
2023/06/17 09:24:58;;;;;;;11.88;4.78;;;32.50;97.20;;;;;;4100410;29;20246;-91
2023/06/17 09:27:00;;;;;;;9.77;5.57;;;32.80;97.20;;;;;;4100149;28;20254;-91
2023/06/17 09:29:02;;;;;;;13.05;5.15;;;32.70;96.10;;;;;;4084394;29;20188;-90
2023/06/17 09:31:04;;;;;;;12.73;5.60;;;33.20;95.80;;;;;;4084608;29;20338;-90
2023/06/17 09:33:17;;;;;;;17.52;5.88;;;33.50;96.30;;;;;;4084635;29;20191;-90
2023/06/17 09:37:44;;;;;;;13.98;5.63;;;33.80;95.20;;;;;;4073635;29;20283;-90
2023/06/17 09:39:46;;;;;;;10.88;5.43;;;33.40;95.40;;;;;;4100019;29;20186;-90
2023/06/17 09:41:47;;;;;;;11.20;5.35;;;32.70;95.60;;;;;;4100213;29;20194;-91
2023/06/17 09:43:51;;;;;;;8.38;5.20;;;32.30;97.20;;;;;;4100252;29;20198;-91
2023/06/17 09:45:59;;;;;;;7.07;5.93;;;32.60;96.70;;;;;;4084403;29;20182;-90
2023/06/17 09:48:04;;;;;;;12.48;5.60;;;32.80;95.90;;;;;;4084302;29;20281;-89
2023/06/17 09:50:08;;;;;;;10.48;5.32;;;33.30;95.20;;;;;;4084233;29;20179;-89
2023/06/17 09:52:10;;;;;;;8.07;5.22;;;33.10;96.30;;;;;;4100029;29;20183;-91
2023/06/17 09:54:11;;;;;;;12.25;5.20;;;32.30;96.10;;;;;;4099855;29;20182;-90
2023/06/17 09:56:13;;;;;;;14.95;5.53;;;32.60;96.50;;;;;;4084551;29;20179;-90
2023/06/17 09:58:15;;;;;;;12.63;5.50;;;33.10;95.40;;;;;;4100097;28;20286;-90
2023/06/17 10:00:18;;;;;;;12.40;5.13;;;33.50;95.60;;;;;;4100070;29;20620;-90
2023/06/17 10:02:19;;;;;;;14.23;5.40;;;33.90;94.80;;;;;;4084199;29;20238;-90
2023/06/17 10:04:20;;;;;;;12.32;5.65;;;33.80;95.20;;;;;;4102165;29;20309;-89
2023/06/17 10:06:21;;;;;;;10.65;5.80;;;33.10;94.90;;;;;;4099849;29;20170;-90
2023/06/17 10:08:22;;;;;;;12.93;5.78;;;32.60;95.50;;;;;;4084063;29;20282;-90
2023/06/17 10:10:24;;;;;;;9.90;5.38;;;32.80;96.30;;;;;;4099920;29;20632;-91
2023/06/17 10:12:25;;;;;;;14.88;5.47;;;32.50;95.20;;;;;;4084108;29;20179;-88
2023/06/17 10:14:31;;;;;;;12.82;5.80;;;32.60;94.90;;;;;;4100007;28;20186;-89
2023/06/17 10:16:36;;;;;;;13.57;6.03;;;32.10;94.90;;;;;;4099775;28;20230;-90
2023/06/17 10:18:39;;;;;;;17.85;5.95;;;32.50;95.40;;;;;;4099671;28;20167;-90
2023/06/17 10:20:41;;;;;;;9.88;5.32;;;33.30;95.50;;;;;;4083994;29;20175;-90
2023/06/17 10:22:42;;;;;;;15.35;5.22;;;33.30;95.90;;;;;;4083878;29;20171;-90
2023/06/17 10:24:43;;;;;;;11.65;5.38;;;33.30;95.00;;;;;;4083716;29;20214;-90
2023/06/17 10:26:44;;;;;;;9.52;5.05;;;33.20;95.90;;;;;;4086788;29;20190;-92
2023/06/17 10:28:53;;;;;;;11.05;5.20;;;33.20;96.30;;;;;;4119224;28;20174;-90
2023/06/17 10:30:57;;;;;;;11.48;5.32;;;33.10;96.40;;;;;;4103127;29;20197;-89